LNNPO ENKB-ENKB
Flight info
| Callsign | LNNPO |
|---|---|
| Flight time | 0h 3m |
| Altitude | 2500 |
| Route | VFR CIRCUITS |
| Aircraft | P28A/L-SDGRY/S |
Departure
| Time | 2026-05-05 14:04 |
|---|---|
| Airport | Kristiansund Airport, Kvernberget (ENKB) |
Arrival
| Time | 2026-05-05 14:08 |
|---|---|
| Airport | Kristiansund Airport, Kvernberget (ENKB) |
| Time | Latitude | Longitude | Altitude | Speed | Heading |
|---|---|---|---|---|---|
| 2026-05-05 13:55 | 63.11602 | 7.83663 | 210 ft | 0 kts | 315° |
| 2026-05-05 13:57 | 63.11602 | 7.83662 | 210 ft | 1 kts | 308° |
| 2026-05-05 13:58 | 63.11561 | 7.83596 | 210 ft | 11 kts | 231° |
| 2026-05-05 13:58 | 63.11536 | 7.83439 | 210 ft | 10 kts | 247° |
| 2026-05-05 13:58 | 63.11508 | 7.83328 | 210 ft | 7 kts | 228° |
| 2026-05-05 13:58 | 63.11468 | 7.83233 | 206 ft | 2 kts | 221° |
| 2026-05-05 14:02 | 63.11462 | 7.83223 | 206 ft | 6 kts | 206° |
| 2026-05-05 14:03 | 63.11409 | 7.83210 | 206 ft | 5 kts | 163° |
| 2026-05-05 14:03 | 63.11359 | 7.83254 | 206 ft | 13 kts | 155° |
| 2026-05-05 14:03 | 63.11305 | 7.83245 | 206 ft | 5 kts | 251° |
| 2026-05-05 14:03 | 63.11294 | 7.83167 | 207 ft | 22 kts | 252° |
| 2026-05-05 14:04 | 63.11182 | 7.82445 | 266 ft | 67 kts | 253° |
| 2026-05-05 14:04 | 63.10975 | 7.81008 | 576 ft | 82 kts | 255° |
| 2026-05-05 14:04 | 63.10882 | 7.80175 | 755 ft | 85 kts | 255° |
| 2026-05-05 14:04 | 63.10516 | 7.79126 | 968 ft | 96 kts | 212° |
| 2026-05-05 14:05 | 63.09827 | 7.79222 | 1243 ft | 108 kts | 162° |
| 2026-05-05 14:05 | 63.09386 | 7.80716 | 1369 ft | 129 kts | 108° |
| 2026-05-05 14:05 | 63.09456 | 7.82666 | 1457 ft | 133 kts | 74° |
| 2026-05-05 14:05 | 63.09719 | 7.84629 | 1571 ft | 136 kts | 73° |
| 2026-05-05 14:06 | 63.10003 | 7.86710 | 1504 ft | 148 kts | 74° |
| 2026-05-05 14:06 | 63.10310 | 7.88953 | 1511 ft | 153 kts | 73° |
| 2026-05-05 14:06 | 63.10936 | 7.90671 | 1334 ft | 135 kts | 15° |
| 2026-05-05 14:06 | 63.11658 | 7.90395 | 1089 ft | 99 kts | 315° |
| 2026-05-05 14:07 | 63.12109 | 7.89391 | 893 ft | 83 kts | 292° |
| 2026-05-05 14:07 | 63.12079 | 7.88277 | 716 ft | 76 kts | 248° |
| 2026-05-05 14:07 | 63.11923 | 7.87268 | 594 ft | 64 kts | 251° |
| 2026-05-05 14:07 | 63.11776 | 7.86366 | 432 ft | 61 kts | 252° |
| 2026-05-05 14:08 | 63.11637 | 7.85428 | 285 ft | 63 kts | 253° |
| 2026-05-05 14:08 | 63.11510 | 7.84587 | 206 ft | 50 kts | 254° |
| 2026-05-05 14:08 | 63.11423 | 7.84012 | 207 ft | 29 kts | 255° |
| 2026-05-05 14:08 | 63.11365 | 7.83645 | 208 ft | 25 kts | 252° |
| 2026-05-05 14:09 | 63.11316 | 7.83316 | 206 ft | 18 kts | 255° |
| 2026-05-05 14:09 | 63.11376 | 7.83235 | 209 ft | 12 kts | 342° |
| 2026-05-05 14:09 | 63.11464 | 7.83216 | 206 ft | 12 kts | 33° |
| 2026-05-05 14:09 | 63.11531 | 7.83398 | 212 ft | 20 kts | 69° |
| 2026-05-05 14:10 | 63.11575 | 7.83639 | 210 ft | 11 kts | 34° |
| 2026-05-05 14:10 | 63.11602 | 7.83664 | 210 ft | 0 kts | 25° |